Time;durP1;ratioP1;P1;durP2;ratioP2;P2;SDS_P1;SDS_P2;PMS_P1;PMS_P2;Temp;Humidity;BMP_temperature;BMP_pressure;BME280_temperature;BME280_humidity;BME280_pressure;Samples;Min_cycle;Max_cycle;Signal;HPM_P1;HPM_P2
2023/11/26 00:00:17;;;;;;;2.92;1.63;;;;;;;;;;6359940;28;20065;-90
2023/11/26 00:03:19;;;;;;;1.73;1.10;;;;;;;;;;6341201;28;20285;-92
2023/11/26 00:06:22;;;;;;;3.95;1.50;;;;;;;;;;6344286;27;20162;-91
2023/11/26 00:09:30;;;;;;;6.50;1.60;;;;;;;;;;6349180;27;20055;-93
2023/11/26 00:12:32;;;;;;;2.80;1.30;;;;;;;;;;6356768;28;20346;-90
2023/11/26 00:18:56;;;;;;;3.70;1.33;;;;;;;;;;6293283;28;20060;-91
2023/11/26 00:21:58;;;;;;;2.88;1.23;;;;;;;;;;6330324;28;20387;-91
2023/11/26 00:25:04;;;;;;;3.75;1.48;;;;;;;;;;6313878;28;20071;-92
2023/11/26 00:45:42;;;;;;;3.53;1.60;;;;;;;;;;6328938;28;20036;-92
2023/11/26 00:48:50;;;;;;;5.25;1.27;;;;;;;;;;6317566;28;20240;-91
2023/11/26 00:51:55;;;;;;;4.22;1.63;;;;;;;;;;6331908;28;20074;-90
2023/11/26 00:54:57;;;;;;;2.63;1.10;;;;;;;;;;6330230;28;20059;-90
2023/11/26 00:58:00;;;;;;;2.25;1.25;;;;;;;;;;6331690;28;20396;-90
2023/11/26 01:01:02;;;;;;;6.38;1.10;;;;;;;;;;6319800;28;20055;-90
2023/11/26 01:04:06;;;;;;;1.90;1.10;;;;;;;;;;6331713;28;20051;-91
2023/11/26 01:07:08;;;;;;;1.77;1.00;;;;;;;;;;6259577;28;20056;-90
2023/11/26 01:10:11;;;;;;;2.03;1.17;;;;;;;;;;6329473;28;20127;-91
2023/11/26 01:13:13;;;;;;;2.20;1.13;;;;;;;;;;6330842;28;20052;-90
2023/11/26 01:16:16;;;;;;;5.53;1.50;;;;;;;;;;6330922;28;20063;-90
2023/11/26 01:22:48;;;;;;;2.08;1.05;;;;;;;;;;6338771;28;20044;-90
2023/11/26 01:25:56;;;;;;;1.15;0.60;;;;;;;;;;6354853;28;20074;-90
2023/11/26 01:29:01;;;;;;;1.83;0.82;;;;;;;;;;6353589;27;20071;-90
2023/11/26 01:32:11;;;;;;;3.50;0.85;;;;;;;;;;6352753;28;20283;-90
2023/11/26 01:45:46;;;;;;;;;;;;;;;;;;;;;
2023/11/26 01:49:00;;;;;;;2.45;1.10;;;;;;;;;;6339421;28;20043;-90
2023/11/26 01:52:10;;;;;;;;;;;;;;;;;;6346333;28;20044;-91
2023/11/26 01:58:55;;;;;;;2.45;0.80;;;;;;;;;;6304402;28;20044;-90
2023/11/26 02:12:44;;;;;;;1.42;0.82;;;;;;;;;;6341033;27;20243;-90
2023/11/26 02:16:03;;;;;;;1.52;0.65;;;;;;;;;;6324937;28;20071;-90
2023/11/26 02:22:35;;;;;;;34.60;14.63;;;;;;;;;;6337107;27;20057;-90
2023/11/26 02:25:41;;;;;;;20.88;9.82;;;;;;;;;;6336788;28;20044;-90
2023/11/26 02:40:30;;;;;;;3.92;0.80;;;;;;;;;;6330745;28;20062;-89
2023/11/26 02:43:50;;;;;;;3.45;0.98;;;;;;;;;;6348918;28;20055;-90
2023/11/26 02:46:53;;;;;;;1.67;1.08;;;;;;;;;;6341487;27;20047;-89
2023/11/26 02:49:55;;;;;;;1.98;0.80;;;;;;;;;;6325390;28;20048;-90
2023/11/26 02:52:58;;;;;;;2.60;1.17;;;;;;;;;;6337331;28;20063;-89
2023/11/26 02:59:51;;;;;;;2.97;0.70;;;;;;;;;;6325353;28;20083;-90
2023/11/26 03:02:56;;;;;;;1.88;1.00;;;;;;;;;;6329342;28;20218;-90
2023/11/26 03:05:58;;;;;;;1.70;0.95;;;;;;;;;;6355256;28;20332;-90
2023/11/26 03:09:37;;;;;;;3.78;1.10;;;;;;;;;;6354852;28;20114;-89
2023/11/26 03:15:48;;;;;;;3.60;1.58;;;;;;;;;;6347731;28;20048;-89
2023/11/26 03:18:52;;;;;;;3.17;1.35;;;;;;;;;;6333770;28;20119;-91
2023/11/26 03:21:54;;;;;;;2.45;1.60;;;;;;;;;;6352357;28;20064;-92
2023/11/26 03:24:57;;;;;;;4.70;1.80;;;;;;;;;;6354446;28;20258;-90
2023/11/26 03:28:04;;;;;;;3.10;1.30;;;;;;;;;;6354733;28;20113;-90
2023/11/26 03:34:28;;;;;;;3.03;1.45;;;;;;;;;;6338358;28;20109;-91
2023/11/26 03:37:31;;;;;;;3.10;1.30;;;;;;;;;;6354294;28;20063;-89
2023/11/26 03:40:36;;;;;;;3.50;1.35;;;;;;;;;;6336741;28;20123;-90
2023/11/26 03:43:38;;;;;;;2.55;1.30;;;;;;;;;;6335641;28;20112;-91
2023/11/26 03:46:42;;;;;;;3.25;1.42;;;;;;;;;;6350381;28;20054;-91
2023/11/26 03:49:44;;;;;;;3.17;1.27;;;;;;;;;;6353267;28;20111;-90
2023/11/26 03:52:47;;;;;;;3.00;1.40;;;;;;;;;;6353351;28;20055;-90
2023/11/26 03:55:51;;;;;;;2.38;1.15;;;;;;;;;;6352046;28;20050;-92
2023/11/26 03:58:53;;;;;;;2.97;1.48;;;;;;;;;;6351339;28;20285;-89
2023/11/26 04:01:57;;;;;;;4.80;1.25;;;;;;;;;;6352465;28;20055;-91
2023/11/26 04:04:59;;;;;;;2.40;1.05;;;;;;;;;;6352341;28;20059;-92
2023/11/26 04:08:01;;;;;;;4.75;1.15;;;;;;;;;;6352472;28;20078;-92
2023/11/26 04:11:07;;;;;;;2.08;1.20;;;;;;;;;;6349827;28;20120;-93
2023/11/26 04:14:15;;;;;;;2.35;0.90;;;;;;;;;;6352868;28;20135;-92
2023/11/26 04:17:39;;;;;;;3.55;1.48;;;;;;;;;;6351944;28;20324;-91
2023/11/26 04:20:42;;;;;;;2.78;1.20;;;;;;;;;;6318012;28;20043;-89
2023/11/26 04:23:45;;;;;;;3.00;1.48;;;;;;;;;;6354407;28;20052;-91
2023/11/26 04:26:53;;;;;;;3.22;1.35;;;;;;;;;;6353353;28;20066;-90
2023/11/26 04:29:56;;;;;;;1.60;1.00;;;;;;;;;;6353362;28;20159;-88
2023/11/26 04:40:21;;;;;;;2.05;1.00;;;;;;;;;;6296042;28;20378;-89
2023/11/26 04:43:30;;;;;;;2.00;0.95;;;;;;;;;;6353490;28;20328;-91
2023/11/26 04:46:33;;;;;;;1.98;1.00;;;;;;;;;;6339088;28;20051;-89
2023/11/26 04:49:36;;;;;;;2.28;0.95;;;;;;;;;;6339080;28;20055;-90
2023/11/26 04:52:48;;;;;;;2.88;0.90;;;;;;;;;;6338903;28;20044;-90
2023/11/26 04:56:07;;;;;;;1.55;0.88;;;;;;;;;;6309900;28;20047;-91
2023/11/26 04:59:35;;;;;;;5.43;0.90;;;;;;;;;;6354162;28;20112;-91
2023/11/26 05:14:04;;;;;;;3.60;1.10;;;;;;;;;;6245058;28;20341;-92
2023/11/26 05:17:10;;;;;;;2.58;1.02;;;;;;;;;;6244694;28;20045;-90
2023/11/26 05:23:55;;;;;;;3.47;1.00;;;;;;;;;;6217544;28;20073;-90
2023/11/26 05:27:05;;;;;;;1.58;0.82;;;;;;;;;;6211212;28;20161;-91
2023/11/26 05:33:36;;;;;;;2.38;1.00;;;;;;;;;;6213444;28;20373;-88
2023/11/26 05:36:42;;;;;;;4.55;1.20;;;;;;;;;;6244515;28;20049;-90
2023/11/26 05:39:45;;;;;;;1.65;0.80;;;;;;;;;;6243160;28;20369;-88
2023/11/26 05:50:16;;;;;;;1.40;0.70;;;;;;;;;;6323538;28;20044;-90
2023/11/26 06:08:36;;;;;;;1.92;1.20;;;;;;;;;;6175972;28;20050;-90
2023/11/26 06:11:39;;;;;;;2.67;1.23;;;;;;;;;;6179329;28;20271;-90
2023/11/26 06:14:45;;;;;;;2.25;1.10;;;;;;;;;;6179486;28;20065;-90
2023/11/26 06:21:24;;;;;;;2.72;1.38;;;;;;;;;;6165048;28;20051;-89
2023/11/26 06:24:32;;;;;;;1.42;1.13;;;;;;;;;;6174699;28;20065;-88
2023/11/26 06:27:46;;;;;;;2.55;1.20;;;;;;;;;;6171079;28;20054;-91
2023/11/26 06:30:53;;;;;;;2.35;1.17;;;;;;;;;;6179461;28;20051;-91
2023/11/26 06:34:02;;;;;;;4.25;1.35;;;;;;;;;;6124219;28;20082;-90
2023/11/26 06:37:15;;;;;;;2.63;1.30;;;;;;;;;;6230507;28;20117;-90
2023/11/26 06:44:03;;;;;;;2.15;1.15;;;;;;;;;;6325303;28;20052;-89
2023/11/26 06:47:11;;;;;;;2.53;1.15;;;;;;;;;;6323374;28;20337;-89
2023/11/26 06:50:22;;;;;;;1.35;0.88;;;;;;;;;;6324022;28;20056;-89
2023/11/26 06:53:27;;;;;;;2.47;1.05;;;;;;;;;;6311246;28;20105;-89
2023/11/26 07:00:08;;;;;;;2.10;0.90;;;;;;;;;;6316951;28;20056;-88
2023/11/26 07:03:16;;;;;;;1.35;0.70;;;;;;;;;;6321715;28;20048;-89
2023/11/26 07:10:00;;;;;;;2.60;0.80;;;;;;;;;;6308068;28;20105;-88
2023/11/26 07:26:28;;;;;;;1.35;0.77;;;;;;;;;;6302267;28;20188;-88
2023/11/26 07:29:34;;;;;;;1.48;0.75;;;;;;;;;;6326456;28;20052;-88
2023/11/26 07:32:37;;;;;;;1.73;0.70;;;;;;;;;;6327870;28;20063;-90
2023/11/26 07:35:49;;;;;;;1.30;0.70;;;;;;;;;;6325690;28;20053;-88
2023/11/26 07:42:10;;;;;;;0.82;0.60;;;;;;;;;;6323988;28;20187;-88
2023/11/26 07:45:13;;;;;;;1.33;0.60;;;;;;;;;;6310981;28;20246;-88
2023/11/26 07:48:16;;;;;;;0.85;0.50;;;;;;;;;;6326491;28;20083;-89
2023/11/26 07:51:26;;;;;;;1.58;0.70;;;;;;;;;;6324052;28;20090;-91
2023/11/26 07:54:34;;;;;;;2.50;0.70;;;;;;;;;;6303133;28;20056;-89
2023/11/26 08:04:56;;;;;;;1.65;0.80;;;;;;;;;;6207517;28;20123;-90
2023/11/26 08:08:23;;;;;;;1.63;0.85;;;;;;;;;;6315985;28;20056;-90
2023/11/26 08:19:06;;;;;;;1.95;0.80;;;;;;;;;;6247706;28;20238;-89
2023/11/26 08:22:35;;;;;;;1.55;0.90;;;;;;;;;;6181375;28;20310;-87
2023/11/26 08:36:46;;;;;;;1.23;0.73;;;;;;;;;;6099954;29;20044;-88
2023/11/26 08:39:51;;;;;;;2.92;0.80;;;;;;;;;;6098847;29;20649;-88
2023/11/26 08:43:32;;;;;;;3.35;0.90;;;;;;;;;;6086527;29;20059;-87
2023/11/26 08:54:20;;;;;;;2.97;1.23;;;;;;;;;;6115356;29;20098;-92
2023/11/26 08:57:26;;;;;;;1.60;1.00;;;;;;;;;;6115575;29;20060;-92
2023/11/26 09:00:31;;;;;;;3.42;0.90;;;;;;;;;;6115439;29;20063;-90
2023/11/26 09:03:36;;;;;;;1.30;0.80;;;;;;;;;;6091617;29;20081;-86
2023/11/26 09:06:40;;;;;;;1.95;1.13;;;;;;;;;;6158244;28;20095;-87
2023/11/26 09:09:45;;;;;;;3.88;1.20;;;;;;;;;;6206274;28;20065;-86
2023/11/26 09:12:47;;;;;;;3.20;1.58;;;;;;;;;;6262232;28;20185;-87
2023/11/26 09:15:49;;;;;;;3.42;1.63;;;;;;;;;;6331911;28;20115;-86
2023/11/26 09:18:51;;;;;;;2.00;1.10;;;;;;;;;;6331959;28;20127;-86
2023/11/26 09:22:02;;;;;;;3.25;1.30;;;;;;;;;;6328371;28;20052;-86
2023/11/26 09:25:08;;;;;;;2.85;1.20;;;;;;;;;;6311462;28;20144;-88
2023/11/26 09:28:19;;;;;;;2.17;1.08;;;;;;;;;;6301893;28;20124;-87
2023/11/26 09:31:21;;;;;;;2.58;1.08;;;;;;;;;;6327008;28;20120;-88
2023/11/26 09:34:23;;;;;;;3.45;1.00;;;;;;;;;;6325355;28;20235;-89
2023/11/26 09:37:27;;;;;;;2.28;0.98;;;;;;;;;;6323650;28;20332;-87
2023/11/26 09:40:29;;;;;;;3.15;1.13;;;;;;;;;;6310423;28;20044;-87
2023/11/26 09:43:32;;;;;;;1.75;0.80;;;;;;;;;;6328066;28;20339;-87
2023/11/26 09:46:34;;;;;;;1.02;0.50;;;;;;;;;;6330469;28;20266;-88
2023/11/26 09:49:36;;;;;;;2.03;0.80;;;;;;;;;;6296521;28;20429;-86
2023/11/26 09:52:42;;;;;;;3.25;0.70;;;;;;;;;;6330033;28;20056;-87
2023/11/26 09:55:47;;;;;;;2.08;0.90;;;;;;;;;;6328930;28;20259;-88
2023/11/26 09:58:49;;;;;;;4.35;0.98;;;;;;;;;;6328670;28;20056;-87
2023/11/26 10:01:54;;;;;;;1.77;0.80;;;;;;;;;;6329393;28;20359;-86
2023/11/26 10:04:56;;;;;;;1.58;0.90;;;;;;;;;;6326597;28;20063;-87
2023/11/26 10:08:00;;;;;;;1.48;0.90;;;;;;;;;;6327320;28;20225;-87
2023/11/26 10:11:03;;;;;;;2.45;1.10;;;;;;;;;;6328794;28;20119;-87
2023/11/26 10:14:14;;;;;;;3.42;0.90;;;;;;;;;;6330318;28;20119;-87
2023/11/26 10:17:16;;;;;;;1.98;1.08;;;;;;;;;;6329862;28;20115;-87
2023/11/26 10:20:19;;;;;;;1.80;1.15;;;;;;;;;;6341540;28;20204;-87
2023/11/26 10:23:29;;;;;;;3.63;1.10;;;;;;;;;;6352124;27;20048;-87
2023/11/26 10:26:33;;;;;;;2.97;1.20;;;;;;;;;;6354121;28;20115;-87
2023/11/26 10:29:42;;;;;;;2.15;1.50;;;;;;;;;;6343930;28;20085;-85
2023/11/26 10:32:55;;;;;;;2.88;1.20;;;;;;;;;;6335361;28;20051;-87
2023/11/26 10:35:57;;;;;;;1.95;1.13;;;;;;;;;;6353930;27;20055;-86
2023/11/26 10:39:04;;;;;;;1.77;1.00;;;;;;;;;;6353437;27;20231;-86
2023/11/26 10:42:07;;;;;;;2.65;1.30;;;;;;;;;;6354561;28;20082;-85
2023/11/26 10:45:10;;;;;;;1.98;1.20;;;;;;;;;;6353457;27;20074;-87
2023/11/26 10:48:14;;;;;;;5.88;1.67;;;;;;;;;;6336899;28;20059;-87
2023/11/26 10:51:19;;;;;;;2.72;1.38;;;;;;;;;;6353100;27;20051;-87
2023/11/26 10:54:27;;;;;;;2.95;1.50;;;;;;;;;;6354614;28;20067;-87
2023/11/26 10:57:34;;;;;;;3.80;1.27;;;;;;;;;;6354211;28;20074;-88
2023/11/26 11:00:37;;;;;;;2.65;1.50;;;;;;;;;;6353541;28;20248;-87
2023/11/26 11:03:39;;;;;;;4.25;1.40;;;;;;;;;;6354949;28;20044;-88
2023/11/26 11:06:42;;;;;;;2.95;0.95;;;;;;;;;;6353811;28;20050;-87
2023/11/26 11:09:56;;;;;;;1.75;1.00;;;;;;;;;;6353842;28;20078;-87
2023/11/26 11:12:59;;;;;;;;;;;;;;;;;;6334437;27;20308;-87
2023/11/26 11:16:02;;;;;;;1.53;0.60;;;;;;;;;;6354912;28;19950;-88
2023/11/26 11:19:04;;;;;;;1.20;0.50;;;;;;;;;;6353185;27;20062;-88
2023/11/26 11:22:06;;;;;;;3.45;0.50;;;;;;;;;;6352165;28;20248;-88
2023/11/26 11:25:11;;;;;;;0.73;0.40;;;;;;;;;;6352400;28;20069;-86
2023/11/26 11:28:13;;;;;;;0.63;0.30;;;;;;;;;;6353162;28;20046;-88
2023/11/26 11:31:16;;;;;;;0.10;0.10;;;;;;;;;;6333644;28;20063;-87
2023/11/26 11:34:19;;;;;;;0.70;0.30;;;;;;;;;;6353037;28;20051;-87
2023/11/26 11:37:21;;;;;;;1.23;0.50;;;;;;;;;;6351915;28;20160;-89
2023/11/26 11:40:53;;;;;;;0.98;0.65;;;;;;;;;;6353852;28;20074;-88
2023/11/26 11:44:25;;;;;;;1.05;0.40;;;;;;;;;;6336509;28;20086;-86
2023/11/26 11:47:42;;;;;;;1.60;0.30;;;;;;;;;;6352897;28;20266;-87
2023/11/26 11:50:44;;;;;;;0.43;0.30;;;;;;;;;;6353155;28;20101;-88
2023/11/26 11:53:45;;;;;;;0.90;0.57;;;;;;;;;;6354742;27;20043;-88
2023/11/26 11:56:47;;;;;;;1.13;0.70;;;;;;;;;;6357693;28;20154;-88
2023/11/26 11:59:55;;;;;;;1.42;0.45;;;;;;;;;;6357152;27;20047;-88
2023/11/26 12:02:57;;;;;;;1.23;0.70;;;;;;;;;;6358739;27;20217;-87
2023/11/26 12:06:10;;;;;;;0.98;0.45;;;;;;;;;;6358000;27;20047;-87
2023/11/26 12:09:12;;;;;;;1.30;0.70;;;;;;;;;;6322371;28;20051;-86
2023/11/26 12:12:18;;;;;;;1.90;0.60;;;;;;;;;;6357769;28;20058;-86
2023/11/26 12:15:21;;;;;;;1.80;0.70;;;;;;;;;;6357672;27;20063;-87
2023/11/26 12:18:23;;;;;;;1.30;0.88;;;;;;;;;;6358696;28;20133;-88
2023/11/26 12:21:25;;;;;;;2.47;0.90;;;;;;;;;;6356335;27;20114;-87
2023/11/26 12:24:28;;;;;;;1.25;0.80;;;;;;;;;;6357925;27;20332;-88
2023/11/26 12:27:33;;;;;;;1.40;0.73;;;;;;;;;;6356741;28;20051;-88
2023/11/26 12:30:42;;;;;;;1.70;0.98;;;;;;;;;;6355860;27;20059;-89
2023/11/26 12:33:47;;;;;;;4.75;2.70;;;;;;;;;;6356844;28;20101;-90
2023/11/26 12:36:51;;;;;;;5.55;2.95;;;;;;;;;;6356311;27;20110;-89
2023/11/26 12:39:53;;;;;;;6.90;2.80;;;;;;;;;;6339247;28;20237;-89
2023/11/26 12:42:55;;;;;;;4.15;2.95;;;;;;;;;;6352810;28;20128;-88
2023/11/26 12:46:10;;;;;;;4.22;2.80;;;;;;;;;;6353034;27;20111;-89
2023/11/26 12:49:16;;;;;;;4.95;3.00;;;;;;;;;;6355801;28;20040;-87
2023/11/26 12:52:18;;;;;;;4.70;2.75;;;;;;;;;;6354541;27;20108;-87
2023/11/26 12:55:20;;;;;;;5.72;2.55;;;;;;;;;;6357411;28;20051;-88
2023/11/26 12:58:23;;;;;;;8.13;3.33;;;;;;;;;;6354891;28;20279;-89
2023/11/26 13:01:28;;;;;;;4.30;2.87;;;;;;;;;;6356492;27;20048;-90
2023/11/26 13:04:31;;;;;;;4.80;2.65;;;;;;;;;;6336559;27;20157;-90
2023/11/26 13:07:38;;;;;;;4.82;2.83;;;;;;;;;;6354951;28;20047;-90
2023/11/26 13:10:48;;;;;;;4.80;2.70;;;;;;;;;;6339286;28;20071;-87
2023/11/26 13:13:52;;;;;;;5.15;2.47;;;;;;;;;;6353832;28;20229;-88
2023/11/26 13:16:55;;;;;;;4.78;2.42;;;;;;;;;;6353514;28;20120;-89
2023/11/26 13:19:57;;;;;;;5.47;2.47;;;;;;;;;;6354873;28;20328;-88
2023/11/26 13:22:59;;;;;;;4.03;2.47;;;;;;;;;;6354957;28;20146;-87
2023/11/26 13:26:01;;;;;;;6.35;3.47;;;;;;;;;;6353051;28;20058;-87
2023/11/26 13:29:03;;;;;;;4.57;2.92;;;;;;;;;;6354559;28;20043;-89
2023/11/26 13:32:08;;;;;;;5.18;3.17;;;;;;;;;;6354344;28;20655;-88
2023/11/26 13:35:11;;;;;;;4.38;2.92;;;;;;;;;;6320735;28;20051;-89
2023/11/26 13:38:13;;;;;;;3.78;2.67;;;;;;;;;;6356462;28;20051;-89
2023/11/26 13:41:15;;;;;;;6.43;2.58;;;;;;;;;;6355452;28;20047;-90
2023/11/26 13:44:18;;;;;;;3.65;2.17;;;;;;;;;;6354219;28;20410;-90
2023/11/26 13:47:22;;;;;;;5.45;2.15;;;;;;;;;;6353824;28;20282;-89
2023/11/26 13:50:24;;;;;;;4.05;2.63;;;;;;;;;;6354883;28;20062;-88
2023/11/26 13:53:26;;;;;;;5.25;3.00;;;;;;;;;;6352452;28;20282;-89
2023/11/26 13:56:28;;;;;;;6.35;2.35;;;;;;;;;;6356168;28;20089;-89
2023/11/26 13:59:33;;;;;;;5.53;2.47;;;;;;;;;;6353465;28;20051;-89
2023/11/26 14:02:37;;;;;;;5.30;2.55;;;;;;;;;;6338590;28;20060;-89
2023/11/26 14:05:39;;;;;;;4.15;1.95;;;;;;;;;;6330339;27;20056;-89
2023/11/26 14:08:41;;;;;;;3.33;1.63;;;;;;;;;;6341279;28;20054;-88
2023/11/26 14:11:43;;;;;;;4.40;2.17;;;;;;;;;;6355054;27;20138;-88
2023/11/26 14:14:45;;;;;;;3.72;2.45;;;;;;;;;;6353579;28;20051;-89
2023/11/26 14:17:49;;;;;;;4.38;1.98;;;;;;;;;;6354509;27;20051;-89
2023/11/26 14:20:53;;;;;;;2.50;1.60;;;;;;;;;;6332647;28;20051;-89
2023/11/26 14:23:55;;;;;;;;;;;;;;;;;;6356537;28;20116;-89
2023/11/26 14:26:57;;;;;;;5.57;1.98;;;;;;;;;;6338065;28;19999;-89
2023/11/26 14:29:59;;;;;;;22.42;12.18;;;;;;;;;;6355803;28;20047;-93
2023/11/26 14:33:05;;;;;;;67.13;27.95;;;;;;;;;;6353262;28;20047;-93
2023/11/26 14:36:08;;;;;;;31.95;14.77;;;;;;;;;;6337448;28;20057;-89
2023/11/26 14:39:14;;;;;;;12.48;3.13;;;;;;;;;;6353007;28;20051;-89
2023/11/26 14:42:16;;;;;;;5.03;2.33;;;;;;;;;;6354618;28;20062;-87
2023/11/26 14:45:18;;;;;;;6.38;2.40;;;;;;;;;;6354883;28;20055;-88
2023/11/26 14:48:22;;;;;;;5.75;2.42;;;;;;;;;;6356784;28;20056;-89
2023/11/26 14:51:24;;;;;;;5.18;2.20;;;;;;;;;;6344246;28;20050;-88
2023/11/26 14:54:26;;;;;;;3.75;1.80;;;;;;;;;;6354101;28;20093;-88
2023/11/26 14:57:29;;;;;;;2.95;2.00;;;;;;;;;;6351606;28;20039;-87
2023/11/26 15:00:32;;;;;;;3.17;2.00;;;;;;;;;;6349794;28;20316;-88
2023/11/26 15:03:36;;;;;;;3.08;2.13;;;;;;;;;;6353876;28;20332;-88
2023/11/26 15:06:37;;;;;;;5.10;2.00;;;;;;;;;;6355405;28;20048;-87
2023/11/26 15:09:39;;;;;;;4.50;1.77;;;;;;;;;;6354973;28;20048;-89
2023/11/26 15:12:42;;;;;;;2.47;1.88;;;;;;;;;;6354350;28;20552;-87
2023/11/26 15:15:44;;;;;;;4.78;2.28;;;;;;;;;;6355888;28;20278;-89
2023/11/26 15:18:47;;;;;;;4.10;1.70;;;;;;;;;;6354814;28;20050;-87
2023/11/26 15:21:50;;;;;;;3.63;1.42;;;;;;;;;;6336019;28;20351;-88
2023/11/26 15:24:52;;;;;;;3.28;1.48;;;;;;;;;;6354588;28;20366;-90
2023/11/26 15:27:54;;;;;;;3.88;1.85;;;;;;;;;;6336716;28;20055;-90
2023/11/26 15:30:56;;;;;;;4.63;1.60;;;;;;;;;;6354087;28;20205;-88
2023/11/26 15:34:00;;;;;;;2.80;1.60;;;;;;;;;;6331538;28;20063;-88
2023/11/26 15:37:02;;;;;;;2.72;1.50;;;;;;;;;;6354328;28;20066;-88
2023/11/26 15:40:09;;;;;;;3.47;1.33;;;;;;;;;;6332827;28;20044;-89
2023/11/26 15:43:11;;;;;;;3.63;1.48;;;;;;;;;;6352102;28;20118;-89
2023/11/26 15:46:19;;;;;;;2.85;1.52;;;;;;;;;;6335837;28;20135;-89
2023/11/26 15:49:23;;;;;;;4.03;1.90;;;;;;;;;;6353415;28;20051;-89
2023/11/26 15:52:25;;;;;;;;;;;;;;;;;;6335315;28;20217;-89
2023/11/26 15:55:30;;;;;;;3.97;1.60;;;;;;;;;;6352440;28;19931;-91
2023/11/26 15:58:32;;;;;;;2.92;1.50;;;;;;;;;;6353970;28;20055;-89
2023/11/26 16:01:34;;;;;;;5.50;1.50;;;;;;;;;;6351125;28;20235;-88
2023/11/26 16:04:37;;;;;;;2.20;1.63;;;;;;;;;;6352823;28;20056;-88
2023/11/26 16:07:40;;;;;;;4.53;2.40;;;;;;;;;;6352044;28;20044;-88
2023/11/26 16:10:43;;;;;;;5.65;2.28;;;;;;;;;;6349349;28;20415;-89
2023/11/26 16:13:46;;;;;;;3.63;1.90;;;;;;;;;;6321387;28;20078;-89
2023/11/26 16:16:48;;;;;;;2.95;1.52;;;;;;;;;;6351359;28;20066;-87
2023/11/26 16:19:51;;;;;;;2.22;1.52;;;;;;;;;;6351570;28;20078;-88
2023/11/26 16:22:53;;;;;;;3.60;1.77;;;;;;;;;;6353835;28;20119;-87
2023/11/26 16:25:55;;;;;;;2.33;1.67;;;;;;;;;;6352365;28;20058;-88
2023/11/26 16:28:57;;;;;;;4.05;1.50;;;;;;;;;;6352799;28;20063;-88
2023/11/26 16:31:59;;;;;;;2.50;1.45;;;;;;;;;;6335470;28;20104;-87
2023/11/26 16:35:04;;;;;;;2.33;1.30;;;;;;;;;;6351765;28;20240;-88
2023/11/26 16:38:10;;;;;;;3.08;1.23;;;;;;;;;;6353210;28;20051;-87
2023/11/26 16:41:16;;;;;;;2.40;1.00;;;;;;;;;;6355408;28;20051;-90
2023/11/26 16:44:18;;;;;;;1.92;1.02;;;;;;;;;;6356814;28;20152;-89
2023/11/26 16:47:20;;;;;;;3.03;1.40;;;;;;;;;;6329865;27;20046;-89
2023/11/26 16:50:23;;;;;;;3.33;1.17;;;;;;;;;;6357591;27;20073;-88
2023/11/26 16:53:25;;;;;;;2.38;1.00;;;;;;;;;;6355952;28;20295;-89
2023/11/26 16:56:28;;;;;;;2.60;1.63;;;;;;;;;;6354099;27;20050;-92
2023/11/26 16:59:32;;;;;;;1.80;1.10;;;;;;;;;;6334692;28;20064;-91
2023/11/26 17:02:34;;;;;;;2.38;1.10;;;;;;;;;;6356930;28;20062;-91
2023/11/26 17:05:38;;;;;;;2.80;1.60;;;;;;;;;;6358950;27;20379;-91
2023/11/26 17:08:40;;;;;;;2.25;1.48;;;;;;;;;;6336509;27;20043;-92
2023/11/26 17:11:42;;;;;;;5.15;1.80;;;;;;;;;;6354257;28;20051;-90
2023/11/26 17:14:45;;;;;;;3.85;1.92;;;;;;;;;;6338071;27;20067;-92
2023/11/26 17:17:47;;;;;;;4.40;1.90;;;;;;;;;;6356125;27;20337;-91
2023/11/26 17:20:51;;;;;;;4.95;1.73;;;;;;;;;;6355691;27;20137;-90
2023/11/26 17:23:53;;;;;;;2.67;1.33;;;;;;;;;;6353184;28;20102;-92
2023/11/26 17:26:55;;;;;;;4.20;1.63;;;;;;;;;;6352729;27;20047;-92
2023/11/26 17:29:57;;;;;;;2.15;1.20;;;;;;;;;;6338284;27;20048;-90
2023/11/26 17:32:59;;;;;;;2.85;1.50;;;;;;;;;;6336949;28;20066;-90
2023/11/26 17:36:07;;;;;;;5.25;1.80;;;;;;;;;;6355335;28;20114;-90
2023/11/26 17:39:09;;;;;;;3.30;1.80;;;;;;;;;;6335180;28;20085;-90
2023/11/26 17:42:11;;;;;;;3.28;1.85;;;;;;;;;;6337952;28;20086;-89
2023/11/26 17:45:14;;;;;;;3.95;1.67;;;;;;;;;;6339164;27;20051;-91
2023/11/26 17:48:15;;;;;;;3.70;1.88;;;;;;;;;;6353936;28;20055;-90
2023/11/26 17:51:19;;;;;;;4.13;2.15;;;;;;;;;;6354957;27;20055;-91
2023/11/26 17:54:21;;;;;;;3.45;1.90;;;;;;;;;;6355014;28;20123;-91
2023/11/26 17:57:23;;;;;;;5.30;2.00;;;;;;;;;;6352318;27;20666;-90
2023/11/26 18:00:25;;;;;;;6.68;1.60;;;;;;;;;;6355983;27;20043;-92
2023/11/26 18:03:27;;;;;;;4.20;2.08;;;;;;;;;;6335906;28;20051;-91
2023/11/26 18:06:31;;;;;;;4.35;2.00;;;;;;;;;;6338300;28;20336;-92
2023/11/26 18:09:34;;;;;;;4.90;2.95;;;;;;;;;;6354006;27;20059;-90
2023/11/26 18:12:36;;;;;;;4.27;2.50;;;;;;;;;;6354643;28;20404;-90
2023/11/26 18:15:38;;;;;;;7.13;2.40;;;;;;;;;;6354009;27;20483;-91
2023/11/26 18:18:40;;;;;;;4.53;2.58;;;;;;;;;;6353962;27;20061;-91
2023/11/26 18:21:44;;;;;;;3.53;2.45;;;;;;;;;;6351727;28;20056;-89
2023/11/26 18:24:45;;;;;;;6.10;2.50;;;;;;;;;;6352668;28;20139;-90
2023/11/26 18:27:47;;;;;;;3.60;2.08;;;;;;;;;;6352478;28;20051;-89
2023/11/26 18:30:51;;;;;;;5.13;2.17;;;;;;;;;;6331979;28;20093;-88
2023/11/26 18:33:53;;;;;;;3.95;2.40;;;;;;;;;;6337210;27;20063;-88
2023/11/26 18:36:57;;;;;;;6.50;2.40;;;;;;;;;;6352285;28;20235;-88
2023/11/26 18:39:59;;;;;;;7.38;2.20;;;;;;;;;;6349157;28;20051;-88
2023/11/26 18:43:02;;;;;;;3.33;1.95;;;;;;;;;;6341681;27;20071;-87
2023/11/26 18:46:04;;;;;;;10.60;2.53;;;;;;;;;;6321015;28;20338;-88
2023/11/26 18:49:06;;;;;;;6.38;2.45;;;;;;;;;;6351932;28;20304;-88
2023/11/26 18:52:11;;;;;;;5.70;2.88;;;;;;;;;;6350879;28;20067;-90
2023/11/26 18:55:18;;;;;;;4.32;2.22;;;;;;;;;;6334129;28;20065;-88
2023/11/26 18:58:23;;;;;;;6.50;3.00;;;;;;;;;;6351773;28;20114;-89
2023/11/26 19:01:26;;;;;;;5.53;2.42;;;;;;;;;;6350863;28;20336;-90
2023/11/26 19:04:28;;;;;;;4.03;2.15;;;;;;;;;;6353416;27;20182;-89
2023/11/26 19:07:31;;;;;;;4.75;2.40;;;;;;;;;;6351464;28;20055;-88
2023/11/26 19:10:34;;;;;;;6.38;2.60;;;;;;;;;;6334338;28;20304;-88
2023/11/26 19:13:36;;;;;;;5.05;2.80;;;;;;;;;;6354237;28;20050;-89
2023/11/26 19:16:38;;;;;;;5.57;2.47;;;;;;;;;;6353405;28;20058;-90
2023/11/26 19:19:40;;;;;;;6.30;2.53;;;;;;;;;;6354057;28;20050;-90
2023/11/26 19:22:45;;;;;;;6.43;2.80;;;;;;;;;;6352207;27;20062;-89
2023/11/26 19:25:48;;;;;;;4.63;2.38;;;;;;;;;;6335193;28;20047;-89
2023/11/26 19:28:53;;;;;;;5.78;2.80;;;;;;;;;;6349145;28;20110;-87
2023/11/26 19:31:55;;;;;;;7.18;2.78;;;;;;;;;;6352346;28;20063;-89
2023/11/26 19:34:59;;;;;;;4.90;2.47;;;;;;;;;;6351349;28;20052;-88
2023/11/26 19:38:03;;;;;;;6.72;3.00;;;;;;;;;;6347612;28;20047;-90
2023/11/26 19:41:05;;;;;;;5.15;3.38;;;;;;;;;;6353252;28;20054;-90
2023/11/26 19:44:07;;;;;;;9.20;3.38;;;;;;;;;;6353343;28;20048;-89
2023/11/26 19:47:09;;;;;;;5.25;3.30;;;;;;;;;;6352370;28;20061;-92
2023/11/26 19:50:12;;;;;;;7.50;3.42;;;;;;;;;;6355437;28;20968;-92
2023/11/26 19:53:15;;;;;;;8.75;3.70;;;;;;;;;;6354249;28;20051;-88
2023/11/26 19:56:17;;;;;;;8.53;3.60;;;;;;;;;;6344375;28;20040;-89
2023/11/26 19:59:20;;;;;;;7.53;3.65;;;;;;;;;;6353333;28;20449;-89
2023/11/26 20:02:21;;;;;;;12.45;3.70;;;;;;;;;;6352290;28;20051;-88
2023/11/26 20:05:24;;;;;;;6.10;3.75;;;;;;;;;;6351219;28;20324;-88
2023/11/26 20:08:31;;;;;;;7.60;3.65;;;;;;;;;;6350112;28;20059;-89
2023/11/26 20:11:34;;;;;;;10.60;4.18;;;;;;;;;;6350263;28;20055;-89
2023/11/26 20:14:36;;;;;;;7.50;4.10;;;;;;;;;;6353473;27;20119;-88
2023/11/26 20:17:38;;;;;;;5.45;3.80;;;;;;;;;;6357883;28;20088;-89
2023/11/26 20:20:42;;;;;;;8.00;4.03;;;;;;;;;;6358576;27;20058;-89
2023/11/26 20:23:46;;;;;;;6.55;3.58;;;;;;;;;;6358281;27;20055;-89
2023/11/26 20:26:49;;;;;;;7.25;3.75;;;;;;;;;;6338321;27;20043;-89
2023/11/26 20:29:51;;;;;;;6.30;3.67;;;;;;;;;;6339126;28;20054;-88
2023/11/26 20:32:57;;;;;;;7.05;3.10;;;;;;;;;;6330188;27;20054;-89
2023/11/26 20:36:02;;;;;;;7.05;4.13;;;;;;;;;;6337272;27;20063;-89
2023/11/26 20:39:06;;;;;;;5.60;3.45;;;;;;;;;;6354770;27;20044;-89
2023/11/26 20:42:08;;;;;;;6.45;3.50;;;;;;;;;;6340098;27;20047;-88
2023/11/26 20:45:11;;;;;;;7.50;3.60;;;;;;;;;;6354727;27;22265;-89
2023/11/26 20:48:13;;;;;;;7.20;3.70;;;;;;;;;;6337662;27;21346;-89
2023/11/26 20:51:20;;;;;;;7.93;3.70;;;;;;;;;;6357397;28;20048;-89
2023/11/26 20:54:24;;;;;;;6.78;3.70;;;;;;;;;;6357116;27;20349;-89
2023/11/26 20:57:26;;;;;;;8.82;4.50;;;;;;;;;;6354885;27;20060;-88
2023/11/26 21:00:31;;;;;;;7.10;3.90;;;;;;;;;;6356849;28;20043;-90
2023/11/26 21:03:33;;;;;;;9.20;4.05;;;;;;;;;;6355884;28;20043;-89
2023/11/26 21:06:36;;;;;;;8.93;3.72;;;;;;;;;;6358679;27;20062;-88
2023/11/26 21:09:40;;;;;;;7.35;4.05;;;;;;;;;;6356121;28;20059;-89
2023/11/26 21:12:45;;;;;;;6.43;3.75;;;;;;;;;;6358728;27;20051;-90
2023/11/26 21:15:47;;;;;;;14.75;4.65;;;;;;;;;;6355196;28;20622;-89
2023/11/26 21:18:50;;;;;;;10.07;3.80;;;;;;;;;;6360944;27;20051;-88
2023/11/26 21:21:52;;;;;;;9.68;4.70;;;;;;;;;;6333852;28;20048;-87
2023/11/26 21:24:55;;;;;;;6.82;3.60;;;;;;;;;;6331908;28;20120;-87
2023/11/26 21:27:57;;;;;;;13.52;5.13;;;;;;;;;;6333592;28;20398;-86
2023/11/26 21:31:00;;;;;;;10.73;4.65;;;;;;;;;;6333352;28;20412;-89
2023/11/26 21:34:02;;;;;;;13.80;5.70;;;;;;;;;;6334174;28;20044;-90
2023/11/26 21:37:05;;;;;;;11.13;4.95;;;;;;;;;;6329326;28;20056;-87